Vallejo, California
Current Conditions -  °F | °C
As of 8:54 AM on Saturday 20 Dec 2014 (Local Time) from KAPC Reporting Station
Haze Haze  
Wind Chill: 53°   Ceiling: 2300
Heat Index: 53°   Visibility: 3mi
Dew Point: 53°   Wind: 5mph
Humidity: 100%   Direction: 110°ESE
Pressure: 30.2"   Gusts: NA
Location:  38.1°N, 122.25°W
Report Text: KAPC 201654Z 11004KT 3SM BR BKN023 BKN032 OVC045 12/12 A3020 RMK AO2 SLP218 T01170117
Loading
Personal Weather Stations






























Interactive Weather Map New forecast layout! Learn more

10-Day Weather Forecast

Advertisements
Track Severe Weather on mobile